createdAt,value
2023-02-27T00:59:53.465Z,77.97
2023-02-27T07:09:01.165Z,74.59
2023-02-27T07:09:48.910Z,71.45
2023-02-27T07:10:48.898Z,69.82
2023-02-27T07:11:48.880Z,67.67
2023-02-27T07:12:48.868Z,66.51
2023-02-27T07:13:48.860Z,64.13
2023-02-27T07:14:48.839Z,62.75
2023-02-27T07:15:48.945Z,61.55
2023-02-27T07:16:48.814Z,61.13
2023-02-27T07:17:48.802Z,57.99
2023-02-27T07:18:48.789Z,58.30
2023-02-27T07:19:48.781Z,56.72
2023-02-27T07:20:48.762Z,56.15
2023-02-27T07:21:48.749Z,55.07
2023-02-27T07:22:48.847Z,54.04
2023-02-27T07:24:48.709Z,55.12
2023-02-27T07:25:48.705Z,55.01
2023-02-27T07:26:48.682Z,55.17
2023-02-27T07:27:48.672Z,54.73
2023-02-27T07:28:48.657Z,53.63
2023-02-27T07:29:48.647Z,52.55
2023-02-27T07:30:48.668Z,51.06
2023-02-27T07:31:48.669Z,49.98
2023-02-27T07:32:48.606Z,48.33
2023-02-27T07:33:48.596Z,48.72
2023-02-27T07:34:48.578Z,47.72
2023-02-27T07:35:48.650Z,48.95
2023-02-27T07:36:48.560Z,48.89
2023-02-27T07:37:48.544Z,49.71
2023-02-27T07:38:48.553Z,49.38
2023-02-27T07:39:48.518Z,48.85
2023-02-27T07:40:48.503Z,48.52
2023-02-27T07:41:48.492Z,50.51
2023-02-27T07:42:48.482Z,51.64
2023-02-27T07:43:48.465Z,50.67
2023-02-27T07:44:48.457Z,50.92
2023-02-27T07:45:48.441Z,50.64
2023-02-27T07:46:48.500Z,51.77
2023-02-27T07:47:48.430Z,51.56
2023-02-27T07:48:48.400Z,52.10
2023-02-27T07:49:48.386Z,51.64
2023-02-27T07:50:48.373Z,51.17
2023-02-27T07:51:48.361Z,53.16
2023-02-27T07:52:48.370Z,52.88
2023-02-27T07:53:48.336Z,54.11
2023-02-27T07:54:48.359Z,53.70
2023-02-27T07:55:48.310Z,53.86
2023-02-27T07:56:48.300Z,52.05
2023-02-27T07:57:48.279Z,51.62
2023-02-27T07:58:48.266Z,50.54
2023-02-27T07:59:48.251Z,50.46
2023-02-27T08:00:48.241Z,51.23
2023-02-27T08:01:48.226Z,51.75
2023-02-27T08:02:48.273Z,52.13
2023-02-27T08:03:48.202Z,51.62
2023-02-27T08:04:48.225Z,51.59
2023-02-27T08:05:48.175Z,50.79
2023-02-27T08:06:48.168Z,51.39
2023-02-27T08:07:48.150Z,50.43
2023-02-27T08:08:48.140Z,50.64
2023-02-27T08:09:48.122Z,50.62
2023-02-27T08:10:48.135Z,49.79
2023-02-27T08:11:49.242Z,50.06
2023-02-27T08:12:48.082Z,49.01
2023-02-27T08:14:00.264Z,49.16
2023-02-27T08:14:50.065Z,50.13
2023-02-27T08:15:48.066Z,50.75
2023-02-27T08:16:48.048Z,51.00
2023-02-27T08:17:48.016Z,51.47
2023-02-27T08:18:48.006Z,50.42
2023-02-27T08:19:48.000Z,50.67
2023-02-27T08:20:47.984Z,50.24
2023-02-27T08:21:47.964Z,49.60
2023-02-27T08:22:47.961Z,48.54
2023-02-27T08:23:47.945Z,50.80
2023-02-27T08:24:47.934Z,50.06
2023-02-27T08:25:47.915Z,48.82
2023-02-27T08:26:47.929Z,49.59
2023-02-27T08:27:47.894Z,50.29
2023-02-27T08:28:47.886Z,50.10
2023-02-27T08:29:47.865Z,50.80
2023-02-27T08:30:47.850Z,51.23
2023-02-27T08:31:47.932Z,51.36
2023-02-27T08:32:47.828Z,50.51
2023-02-27T08:33:49.589Z,51.81
2023-02-27T08:34:47.806Z,49.34
2023-02-27T08:35:47.831Z,49.51
2023-02-27T08:36:47.774Z,52.08
2023-02-27T08:37:47.756Z,51.91
2023-02-27T08:38:47.743Z,52.13
2023-02-27T08:39:47.728Z,52.88
2023-02-27T08:40:47.718Z,50.83
2023-02-27T08:41:47.702Z,50.62
2023-02-27T08:42:47.715Z,50.72
2023-02-27T08:43:47.679Z,50.50
2023-02-27T08:44:47.664Z,50.70
2023-02-27T08:45:47.691Z,50.26
2023-02-27T08:46:47.650Z,50.59
2023-02-27T08:47:47.619Z,50.24
2023-02-27T08:48:47.605Z,49.21
2023-02-27T08:49:47.592Z,49.11
2023-02-27T08:50:47.605Z,48.55
2023-02-27T08:51:47.571Z,48.24
2023-02-27T08:52:47.558Z,47.94
2023-02-27T08:53:47.540Z,47.65
2023-02-27T08:54:47.526Z,47.73
2023-02-27T08:55:47.511Z,48.04
2023-02-27T08:56:47.499Z,47.30
2023-02-27T08:57:47.485Z,47.55
2023-02-27T08:58:47.494Z,47.05
2023-02-27T08:59:47.484Z,47.67
2023-02-27T09:00:47.478Z,47.36
2023-02-27T09:01:47.446Z,47.33
2023-02-27T09:02:47.484Z,48.35
2023-02-27T09:03:47.412Z,48.85
2023-02-27T09:04:47.433Z,48.80
2023-02-27T09:05:47.385Z,47.85
2023-02-27T09:06:47.371Z,46.45
2023-02-27T09:07:47.355Z,45.35
2023-02-27T09:08:47.349Z,46.56
2023-02-27T09:09:49.745Z,47.30
2023-02-27T09:10:47.319Z,48.02
2023-02-27T09:11:47.302Z,47.80
2023-02-27T09:12:47.293Z,48.89
2023-02-27T09:13:47.277Z,49.02
2023-02-27T09:14:47.295Z,52.08
2023-02-27T09:15:47.259Z,50.74
2023-02-27T09:16:47.310Z,52.18
2023-02-27T09:17:47.227Z,51.44
2023-02-27T09:18:47.213Z,52.20
2023-02-27T09:19:47.197Z,52.92
2023-02-27T09:20:47.189Z,50.54
2023-02-27T09:21:47.172Z,49.68
2023-02-27T09:22:47.160Z,50.48
2023-02-27T09:23:47.160Z,50.03
2023-02-27T09:24:47.158Z,48.81
2023-02-27T09:25:47.118Z,48.94
2023-02-27T09:26:47.605Z,49.63
2023-02-27T09:27:47.098Z,48.85
2023-02-27T09:28:47.084Z,47.26
2023-02-27T09:29:47.069Z,46.85
2023-02-27T09:30:47.107Z,46.76
2023-02-27T09:31:47.195Z,45.35
2023-02-27T09:32:47.088Z,44.81
2023-02-27T09:33:47.014Z,44.78
2023-02-27T09:34:47.002Z,46.54
2023-02-27T09:35:47.010Z,46.11
2023-02-27T09:36:46.976Z,46.72
2023-02-27T09:37:46.968Z,45.68
2023-02-27T09:38:46.958Z,45.78
2023-02-27T09:39:46.934Z,46.25
2023-02-27T09:40:46.922Z,47.99
2023-02-27T09:41:46.908Z,48.13
2023-02-27T09:42:46.932Z,47.82
2023-02-27T09:43:46.886Z,47.30
2023-02-27T09:44:47.545Z,46.72
2023-02-27T09:45:46.880Z,45.94
2023-02-27T09:46:46.867Z,46.29
2023-02-27T09:47:46.830Z,45.25
2023-02-27T09:48:46.818Z,45.10
2023-02-27T09:49:46.809Z,45.82
2023-02-27T09:50:46.793Z,45.68
2023-02-27T09:51:46.793Z,45.25
2023-02-27T09:52:46.766Z,46.85
2023-02-27T09:53:46.750Z,46.45
2023-02-27T09:54:46.740Z,44.18
2023-02-27T09:55:46.724Z,44.75
2023-02-27T09:56:46.718Z,46.19
2023-02-27T09:57:46.701Z,48.34
2023-02-27T09:58:46.688Z,49.12
2023-02-27T09:59:46.677Z,49.16
2023-02-27T10:00:46.698Z,50.17
2023-02-27T10:01:46.653Z,51.55
2023-02-27T10:02:46.686Z,52.56
2023-02-27T10:03:46.619Z,50.79
2023-02-27T10:04:46.611Z,49.29
2023-02-27T10:05:46.594Z,48.89
2023-02-27T10:06:46.583Z,48.44
2023-02-27T10:07:46.565Z,50.27
2023-02-27T10:08:46.557Z,49.93
2023-02-27T10:09:46.544Z,50.04
2023-02-27T10:10:46.555Z,51.73
2023-02-27T10:11:46.519Z,51.97
2023-02-27T10:12:46.512Z,52.85
2023-02-27T10:13:46.491Z,52.43
2023-02-27T10:14:46.479Z,53.61
2023-02-27T10:15:46.465Z,54.60
2023-02-27T10:16:46.515Z,53.00
2023-02-27T10:17:46.438Z,53.72
2023-02-27T10:18:46.457Z,53.00
2023-02-27T10:19:46.412Z,53.15
2023-02-27T10:20:46.402Z,53.77
2023-02-27T10:21:46.392Z,52.46
2023-02-27T10:22:46.372Z,51.28
2023-02-27T10:23:46.362Z,50.78
2023-02-27T10:24:46.349Z,50.28
2023-02-27T10:25:46.336Z,48.17
2023-02-27T10:26:46.321Z,47.99
2023-02-27T10:27:46.307Z,49.89
2023-02-27T10:28:46.301Z,48.74
2023-02-27T10:29:46.282Z,46.75
2023-02-27T10:30:46.335Z,45.76
2023-02-27T10:31:46.312Z,45.92
2023-02-27T10:32:46.246Z,46.24
2023-02-27T10:33:46.232Z,46.11
2023-02-27T10:34:46.247Z,47.06
2023-02-27T10:35:46.329Z,47.61
2023-02-27T10:36:46.193Z,46.56
2023-02-27T10:37:46.178Z,46.58
2023-02-27T10:38:46.173Z,46.60
2023-02-27T10:39:46.153Z,44.67
2023-02-27T10:40:46.165Z,43.20
2023-02-27T10:41:46.130Z,43.42
2023-02-27T10:42:46.114Z,43.23
2023-02-27T10:43:46.098Z,43.44
2023-02-27T10:44:46.096Z,43.54
2023-02-27T10:45:46.088Z,43.54
2023-02-27T10:46:46.191Z,43.75
2023-02-27T10:47:46.052Z,42.66
2023-02-27T10:48:46.040Z,42.34
2023-02-27T10:49:46.043Z,41.74
2023-02-27T10:50:46.044Z,41.93
2023-02-27T10:51:46.021Z,42.07
2023-02-27T10:52:46.004Z,42.60
2023-02-27T10:53:46.016Z,42.74
2023-02-27T10:54:46.032Z,43.28
2023-02-27T10:55:45.945Z,43.20
2023-02-27T10:56:45.937Z,42.95
2023-02-27T10:57:45.920Z,42.29
2023-02-27T10:58:45.909Z,42.11
2023-02-27T10:59:45.896Z,42.41
2023-02-27T11:00:45.883Z,42.50
2023-02-27T11:01:46.007Z,41.46
2023-02-27T11:02:45.864Z,41.54
2023-02-27T11:03:45.852Z,41.23
2023-02-27T11:04:45.894Z,41.19
2023-02-27T11:05:45.819Z,40.17
2023-02-27T11:06:45.839Z,40.17
2023-02-27T11:07:45.797Z,40.96
2023-02-27T11:08:45.784Z,41.90
2023-02-27T11:09:45.770Z,42.73
2023-02-27T11:10:45.757Z,42.64
2023-02-27T11:11:45.742Z,42.54
2023-02-27T11:12:45.732Z,42.38
2023-02-27T11:13:45.720Z,41.47
2023-02-27T11:14:45.712Z,42.55
2023-02-27T11:15:45.745Z,42.93
2023-02-27T11:16:45.685Z,42.27
2023-02-27T11:17:45.668Z,41.41
2023-02-27T11:18:45.665Z,40.63
2023-02-27T11:19:45.647Z,38.83
2023-02-27T11:20:45.637Z,37.84
2023-02-27T11:21:45.636Z,36.22
2023-02-27T11:22:45.639Z,36.78
2023-02-27T11:23:45.599Z,37.22
2023-02-27T11:24:45.588Z,37.73
2023-02-27T11:25:45.573Z,37.54
2023-02-27T11:26:45.565Z,38.50
2023-02-27T11:27:45.553Z,38.62
2023-02-27T11:28:45.542Z,38.72
2023-02-27T11:29:45.526Z,39.27
2023-02-27T11:30:45.587Z,39.56
2023-02-27T11:31:45.573Z,38.62
2023-02-27T11:32:45.487Z,39.06
2023-02-27T11:33:45.475Z,39.97
2023-02-27T11:34:45.473Z,38.81
2023-02-27T11:35:45.463Z,39.09
2023-02-27T11:36:45.458Z,39.11
2023-02-27T11:37:45.425Z,38.67
2023-02-27T11:38:45.489Z,38.40
2023-02-27T11:39:45.401Z,37.97
2023-02-27T11:40:45.389Z,38.07
2023-02-27T11:41:45.397Z,39.13
2023-02-27T11:42:45.364Z,39.35
2023-02-27T11:43:45.351Z,39.44
2023-02-27T11:44:49.942Z,39.31
2023-02-27T11:46:05.052Z,38.46
2023-02-27T11:46:47.701Z,38.06
2023-02-27T11:47:45.303Z,38.02
2023-02-27T11:48:45.294Z,36.96
2023-02-27T11:49:45.278Z,35.98
2023-02-27T11:50:45.269Z,38.29
2023-02-27T11:51:45.254Z,39.17
2023-02-27T11:52:45.247Z,40.19
2023-02-27T11:53:45.227Z,40.00
2023-02-27T11:54:45.247Z,40.74
2023-02-27T11:55:45.222Z,40.48
2023-02-27T11:56:45.191Z,39.03
2023-02-27T11:57:45.177Z,40.45
2023-02-27T11:58:45.167Z,42.02
2023-02-27T11:59:45.153Z,41.14
2023-02-27T12:00:45.147Z,40.15
2023-02-27T12:01:45.133Z,38.85
2023-02-27T12:02:45.181Z,37.53
2023-02-27T12:03:45.181Z,37.44
2023-02-27T12:04:45.092Z,37.17
2023-02-27T12:05:45.081Z,37.70
2023-02-27T12:06:45.065Z,38.50
2023-02-27T12:07:45.057Z,37.51
2023-02-27T12:08:45.043Z,39.00
2023-02-27T12:09:45.030Z,38.76
2023-02-27T12:10:45.140Z,38.55
2023-02-27T12:11:45.005Z,39.39
2023-02-27T12:12:45.009Z,39.17
2023-02-27T12:13:44.981Z,38.51
2023-02-27T12:14:44.994Z,38.43
2023-02-27T12:15:44.959Z,38.17
2023-02-27T12:16:45.055Z,37.61
2023-02-27T12:17:44.940Z,35.93
2023-02-27T12:18:44.932Z,35.30
2023-02-27T12:19:44.916Z,35.00
2023-02-27T12:20:44.891Z,35.18
2023-02-27T12:21:44.880Z,34.32
2023-02-27T12:22:44.868Z,35.16
2023-02-27T12:23:44.862Z,35.68
2023-02-27T12:24:44.842Z,35.64
2023-02-27T12:25:44.832Z,35.32
2023-02-27T12:26:44.837Z,35.76
2023-02-27T12:27:44.807Z,35.35
2023-02-27T12:28:44.796Z,35.15
2023-02-27T12:29:44.784Z,35.03
2023-02-27T12:30:44.765Z,34.89
2023-02-27T12:31:44.884Z,35.62
2023-02-27T12:32:44.741Z,35.21
2023-02-27T12:33:44.727Z,34.66
2023-02-27T12:34:44.718Z,34.03
2023-02-27T12:35:44.746Z,34.17
2023-02-27T12:36:44.715Z,35.57
2023-02-27T12:37:44.675Z,36.27
2023-02-27T12:38:44.665Z,35.62
2023-02-27T12:39:44.653Z,35.06
2023-02-27T12:40:44.634Z,34.99
2023-02-27T12:41:44.630Z,34.39
2023-02-27T12:42:44.631Z,35.30
2023-02-27T12:43:44.597Z,34.33
2023-02-27T12:44:44.592Z,33.14
2023-02-27T12:45:44.602Z,33.97
2023-02-27T12:46:44.556Z,34.61
2023-02-27T12:47:44.591Z,34.96
2023-02-27T12:48:44.532Z,35.77
2023-02-27T12:49:44.521Z,35.86
2023-02-27T12:50:44.507Z,35.21
2023-02-27T12:51:44.505Z,34.97
2023-02-27T12:52:44.483Z,34.16
2023-02-27T12:53:44.469Z,34.45
2023-02-27T12:54:46.543Z,34.14
2023-02-27T12:55:44.447Z,34.47
2023-02-27T12:56:44.431Z,34.93
2023-02-27T12:57:44.418Z,35.30
2023-02-27T12:58:44.429Z,34.72
2023-02-27T12:59:44.395Z,32.99
2023-02-27T13:00:44.502Z,33.50
2023-02-27T13:01:44.375Z,32.87
2023-02-27T13:02:44.355Z,33.08
2023-02-27T13:03:44.357Z,32.96
2023-02-27T13:04:44.337Z,32.35
2023-02-27T13:05:44.356Z,32.37
2023-02-27T13:06:44.307Z,32.44
2023-02-27T13:07:44.295Z,32.34
2023-02-27T13:08:44.283Z,32.04
2023-02-27T13:09:44.277Z,31.82
2023-02-27T13:10:44.259Z,31.76
2023-02-27T13:11:44.246Z,32.98
2023-02-27T13:12:44.236Z,31.86
2023-02-27T13:13:44.230Z,32.75
2023-02-27T13:14:44.300Z,33.70
2023-02-27T13:15:44.196Z,35.30
2023-02-27T13:16:44.220Z,35.31
2023-02-27T13:17:44.167Z,35.79
2023-02-27T13:18:44.167Z,34.41
2023-02-27T13:19:44.145Z,33.77
2023-02-27T13:20:44.133Z,32.94
2023-02-27T13:21:44.118Z,32.73
2023-02-27T13:22:44.106Z,32.53
2023-02-27T13:23:44.124Z,33.26
2023-02-27T13:24:44.077Z,33.14
2023-02-27T13:25:44.067Z,33.48
2023-02-27T13:26:44.054Z,33.56
2023-02-27T13:27:44.044Z,33.34
2023-02-27T13:28:44.038Z,32.94
2023-02-27T13:29:44.016Z,33.26
2023-02-27T13:30:44.024Z,33.67
2023-02-27T13:31:44.186Z,33.62
2023-02-27T13:32:44.859Z,32.48
2023-02-27T13:33:43.964Z,32.51
2023-02-27T13:34:43.949Z,32.22
2023-02-27T13:35:43.969Z,33.12
2023-02-27T13:36:43.930Z,32.26
2023-02-27T13:37:43.911Z,32.25
2023-02-27T13:38:43.903Z,30.91
2023-02-27T13:39:43.886Z,30.53
2023-02-27T13:40:43.868Z,30.52
2023-02-27T13:41:43.859Z,29.99
2023-02-27T13:42:43.879Z,30.94
2023-02-27T13:43:52.125Z,30.74
2023-02-27T13:44:43.839Z,30.96
2023-02-27T13:45:43.852Z,31.38
2023-02-27T13:46:43.843Z,31.50
2023-02-27T13:47:43.781Z,32.12
2023-02-27T13:48:43.772Z,32.97
2023-02-27T13:49:43.765Z,33.14
2023-02-27T13:50:43.739Z,32.58
2023-02-27T13:51:43.727Z,33.19
2023-02-27T13:52:43.714Z,32.73
2023-02-27T13:53:43.704Z,32.55
2023-02-27T13:54:43.686Z,32.89
2023-02-27T13:55:43.680Z,31.64
2023-02-27T13:56:43.664Z,31.65
2023-02-27T13:57:43.650Z,31.35
2023-02-27T13:58:43.655Z,31.43
2023-02-27T13:59:43.649Z,31.43
2023-02-27T14:00:43.627Z,32.28
2023-02-27T14:01:43.685Z,32.19
2023-02-27T14:02:57.961Z,31.77
2023-02-27T14:03:45.568Z,31.97
2023-02-27T14:04:43.554Z,31.80
2023-02-27T14:05:43.555Z,32.41
2023-02-27T14:06:43.525Z,32.18
2023-02-27T14:07:43.516Z,31.25
2023-02-27T14:08:43.499Z,32.14
2023-02-27T14:09:43.525Z,34.17
2023-02-27T14:10:43.477Z,36.16
2023-02-27T14:11:43.460Z,37.55
2023-02-27T14:12:45.717Z,39.04
2023-02-27T14:13:43.432Z,40.23
2023-02-27T14:14:43.419Z,41.57
2023-02-27T14:15:43.444Z,41.38
2023-02-27T14:16:43.391Z,40.76
2023-02-27T14:17:43.378Z,40.86
2023-02-27T14:18:43.388Z,41.09
2023-02-27T14:19:43.353Z,41.32
2023-02-27T14:20:43.349Z,41.52
2023-02-27T14:21:43.325Z,41.62
2023-02-27T14:22:43.313Z,41.74
2023-02-27T14:23:43.300Z,42.05
2023-02-27T14:25:00.941Z,42.34
2023-02-27T14:25:43.270Z,42.44
2023-02-27T14:26:43.362Z,42.65
2023-02-27T14:27:43.250Z,41.74
2023-02-27T14:28:43.231Z,41.74
2023-02-27T14:29:43.218Z,41.87
2023-02-27T14:30:43.205Z,42.51
2023-02-27T14:31:43.198Z,43.12
2023-02-27T14:32:43.219Z,42.92
2023-02-27T14:33:43.168Z,43.43
2023-02-27T14:34:43.185Z,43.23
2023-02-27T14:35:43.242Z,43.29
2023-02-27T14:36:43.130Z,42.24
2023-02-27T14:37:43.113Z,42.12
2023-02-27T14:38:43.116Z,42.22
2023-02-27T14:39:43.090Z,42.43
2023-02-27T14:40:43.078Z,42.63
2023-02-27T14:41:43.065Z,42.76
2023-02-27T14:42:43.050Z,43.60
2023-02-27T14:43:43.040Z,43.91
2023-02-27T14:44:43.087Z,43.68
2023-02-27T14:45:43.013Z,44.18
2023-02-27T14:46:43.001Z,42.35
2023-02-27T14:47:42.990Z,40.96
2023-02-27T14:48:42.975Z,40.50
2023-02-27T14:49:42.963Z,41.89
2023-02-27T14:50:42.985Z,42.53
2023-02-27T14:51:42.940Z,42.96
2023-02-27T14:52:42.930Z,43.49
2023-02-27T14:53:42.914Z,44.24
2023-02-27T14:54:45.076Z,45.09
2023-02-27T14:55:42.887Z,44.88
2023-02-27T14:56:42.873Z,44.79
2023-02-27T14:57:42.867Z,45.05
2023-02-27T14:58:44.317Z,43.43
2023-02-27T14:59:42.846Z,41.94
2023-02-27T15:00:42.854Z,41.63
2023-02-27T15:01:42.870Z,42.14
2023-02-27T15:02:42.801Z,42.80
2023-02-27T15:03:42.827Z,43.67
2023-02-27T15:04:42.868Z,43.67
2023-02-27T15:05:42.759Z,43.68
2023-02-27T15:06:42.804Z,44.12
2023-02-27T15:07:42.737Z,44.63
2023-02-27T15:08:42.727Z,44.84
2023-02-27T15:09:42.719Z,45.06
2023-02-27T15:10:42.701Z,44.94
2023-02-27T15:11:44.775Z,44.96
2023-02-27T15:12:42.678Z,44.86
2023-02-27T15:13:42.660Z,44.98
2023-02-27T15:14:42.697Z,44.57
2023-02-27T15:15:42.696Z,45.09
2023-02-27T15:16:42.723Z,44.67
2023-02-27T15:17:42.613Z,45.11
2023-02-27T15:18:42.594Z,45.21
2023-02-27T15:19:42.582Z,45.75
2023-02-27T15:20:42.607Z,46.06
2023-02-27T15:21:42.615Z,45.83
2023-02-27T15:22:42.563Z,45.93
2023-02-27T15:23:42.552Z,46.03
2023-02-27T15:25:42.512Z,45.52
2023-02-27T15:26:42.489Z,45.54
2023-02-27T15:27:42.481Z,45.85
2023-02-27T15:28:42.461Z,46.06
2023-02-27T15:29:42.598Z,46.03
2023-02-27T15:30:42.446Z,45.81
2023-02-27T15:31:42.521Z,45.60
2023-02-27T15:32:42.410Z,45.58
2023-02-27T15:33:42.401Z,44.61
2023-02-27T15:34:42.387Z,44.18
2023-02-27T15:35:42.429Z,43.97
2023-02-27T15:36:42.357Z,44.79
2023-02-27T15:37:42.352Z,44.34
2023-02-27T15:38:42.358Z,43.62
2023-02-27T15:39:42.322Z,43.56
2023-02-27T15:40:42.311Z,43.70
2023-02-27T15:41:42.303Z,44.65
2023-02-27T15:42:42.281Z,45.11
2023-02-27T15:43:42.267Z,45.54
2023-02-27T15:44:42.283Z,45.97
2023-02-27T15:45:42.248Z,46.08
2023-02-27T15:46:42.283Z,46.51
2023-02-27T15:47:43.946Z,46.72
2023-02-27T15:48:42.201Z,47.13
2023-02-27T15:49:42.191Z,47.24
2023-02-27T15:50:42.175Z,47.44
2023-02-27T15:51:42.180Z,47.65
2023-02-27T15:52:42.149Z,47.34
2023-02-27T15:53:42.922Z,47.86
2023-02-27T15:54:42.153Z,47.86
2023-02-27T15:55:42.119Z,47.86
2023-02-27T15:56:42.106Z,48.37
2023-02-27T15:57:47.518Z,48.71
2023-02-27T15:58:42.117Z,48.40
2023-02-27T15:59:42.058Z,48.81
2023-02-27T16:00:42.068Z,48.73
2023-02-27T16:01:42.091Z,49.04
2023-02-27T16:02:42.089Z,49.02
2023-02-27T16:03:42.007Z,49.24
2023-02-27T16:04:41.997Z,49.14
2023-02-27T16:05:41.984Z,49.24
2023-02-27T16:06:41.992Z,49.63
2023-02-27T16:07:41.952Z,49.76
2023-02-27T16:08:41.936Z,49.84
2023-02-27T16:09:41.927Z,49.76
2023-02-27T16:10:41.962Z,50.07
2023-02-27T16:11:41.911Z,50.07
2023-02-27T16:12:41.887Z,50.39
2023-02-27T16:13:41.899Z,50.49
2023-02-27T16:14:41.862Z,50.46
2023-02-27T16:15:41.842Z,50.57
2023-02-27T16:16:41.869Z,50.57
2023-02-27T16:17:41.831Z,49.87
2023-02-27T16:18:41.803Z,49.76
2023-02-27T16:19:41.795Z,50.07
2023-02-27T16:20:41.776Z,49.76
2023-02-27T16:21:41.761Z,49.56
2023-02-27T16:22:41.751Z,49.56
2023-02-27T16:23:41.734Z,49.37
2023-02-27T16:24:41.721Z,49.16
2023-02-27T16:25:41.740Z,49.37
2023-02-27T16:26:41.725Z,49.37
2023-02-27T16:27:41.682Z,49.48
2023-02-27T16:28:41.670Z,49.29
2023-02-27T16:29:41.655Z,49.50
2023-02-27T16:30:41.644Z,49.79
2023-02-27T16:31:41.722Z,49.79
2023-02-27T16:32:41.692Z,49.81
2023-02-27T16:33:41.621Z,49.81
2023-02-27T16:34:46.108Z,49.81
2023-02-27T16:35:41.636Z,50.01
2023-02-27T16:36:41.561Z,50.01
2023-02-27T16:37:41.548Z,50.12
2023-02-27T16:38:41.537Z,50.12
2023-02-27T16:39:41.524Z,50.32
2023-02-27T16:40:41.643Z,50.43
2023-02-27T16:41:41.513Z,50.43
2023-02-27T16:42:41.511Z,50.66
2023-02-27T16:43:41.468Z,50.95
2023-02-27T16:44:41.455Z,50.64
2023-02-27T16:45:41.489Z,50.74
2023-02-27T16:46:41.434Z,50.64
2023-02-27T16:47:41.421Z,50.84
2023-02-27T16:48:41.407Z,51.05
2023-02-27T16:49:41.390Z,51.39
2023-02-27T16:50:41.389Z,51.80
2023-02-27T16:51:41.365Z,52.11
2023-02-27T16:52:41.355Z,52.32
2023-02-27T16:53:41.341Z,52.19
2023-02-27T16:54:41.334Z,52.01
2023-02-27T16:55:41.322Z,51.70
2023-02-27T16:56:41.695Z,51.49
2023-02-27T16:57:41.301Z,51.70
2023-02-27T16:58:41.317Z,51.91
2023-02-27T16:59:41.281Z,52.11
2023-02-27T17:00:41.257Z,52.11
2023-02-27T17:01:41.245Z,52.01
2023-02-27T17:02:41.232Z,52.34
2023-02-27T17:03:41.220Z,52.55
2023-02-27T17:04:41.236Z,52.14
2023-02-27T17:05:41.198Z,52.24
2023-02-27T17:06:41.190Z,52.45
2023-02-27T17:07:41.171Z,52.55
2023-02-27T17:08:41.184Z,52.74
2023-02-27T17:09:41.148Z,52.66
2023-02-27T17:10:41.136Z,52.97
2023-02-27T17:11:41.121Z,52.97
2023-02-27T17:12:43.504Z,53.07
2023-02-27T17:13:41.102Z,53.17
2023-02-27T17:14:41.107Z,53.27
2023-02-27T17:15:41.076Z,53.27
2023-02-27T17:16:41.113Z,53.07
2023-02-27T17:17:41.053Z,53.48
2023-02-27T17:18:41.037Z,53.48
2023-02-27T17:19:41.026Z,53.79
2023-02-27T17:20:41.017Z,53.92
2023-02-27T17:21:41.004Z,53.82
2023-02-27T17:22:40.986Z,54.21
2023-02-27T17:23:40.973Z,54.13
2023-02-27T17:24:40.967Z,54.02
2023-02-27T17:25:40.950Z,54.13
2023-02-27T17:26:40.939Z,54.23
2023-02-27T17:27:40.926Z,54.23
2023-02-27T17:28:40.914Z,54.23
2023-02-27T17:29:40.909Z,54.33
2023-02-27T17:30:40.988Z,54.23
2023-02-27T17:31:40.877Z,53.92
2023-02-27T17:32:40.877Z,54.02
2023-02-27T17:33:40.852Z,54.23
2023-02-27T17:34:40.842Z,54.13
2023-02-27T17:35:40.866Z,54.23
2023-02-27T17:36:40.815Z,54.44
2023-02-27T17:37:40.801Z,54.23
2023-02-27T17:38:40.791Z,54.44
2023-02-27T17:39:40.776Z,54.54
2023-02-27T17:40:40.765Z,54.54
2023-02-27T17:41:40.752Z,54.65
2023-02-27T17:42:40.743Z,54.44
2023-02-27T17:43:40.732Z,54.23
2023-02-27T17:44:40.717Z,54.33
2023-02-27T17:45:40.704Z,54.33
2023-02-27T17:46:40.740Z,54.75
2023-02-27T17:47:40.681Z,54.75
2023-02-27T17:48:40.668Z,54.96
2023-02-27T17:49:40.668Z,54.96
2023-02-27T17:50:40.645Z,54.96
2023-02-27T17:51:40.630Z,55.09
2023-02-27T17:52:40.630Z,55.27
2023-02-27T17:53:40.619Z,55.30
2023-02-27T17:54:40.598Z,55.30
2023-02-27T17:55:40.576Z,55.51
2023-02-27T17:56:40.566Z,55.61
2023-02-27T17:57:40.553Z,55.71
2023-02-27T17:58:40.542Z,55.92
2023-02-27T17:59:40.530Z,56.13
2023-02-27T18:00:40.516Z,56.13
2023-02-27T18:01:40.569Z,56.34
2023-02-27T18:02:40.573Z,56.34
2023-02-27T18:03:40.474Z,56.44
2023-02-27T18:04:40.463Z,56.44
2023-02-27T18:05:40.450Z,56.75
2023-02-27T18:06:40.439Z,56.44
2023-02-27T18:07:40.424Z,56.54
2023-02-27T18:08:40.414Z,56.65
2023-02-27T18:09:40.405Z,56.86
2023-02-27T18:10:40.389Z,56.96
2023-02-27T18:11:40.374Z,57.06
2023-02-27T18:12:40.378Z,57.29
2023-02-27T18:13:40.347Z,57.40
2023-02-27T18:14:40.339Z,57.40
2023-02-27T18:15:40.340Z,57.37
2023-02-27T18:16:40.313Z,57.40
2023-02-27T18:17:40.308Z,57.29
2023-02-27T18:18:40.309Z,57.40
2023-02-27T18:19:40.280Z,57.71
2023-02-27T18:20:40.268Z,57.92
2023-02-27T18:21:40.329Z,57.92
2023-02-27T18:22:40.239Z,58.12
2023-02-27T18:23:40.221Z,58.02
2023-02-27T18:24:40.210Z,57.92
2023-02-27T18:25:40.195Z,58.02
2023-02-27T18:26:40.185Z,58.12
2023-02-27T18:27:40.171Z,58.23
2023-02-27T18:28:40.165Z,58.33
2023-02-27T18:29:40.149Z,58.23
2023-02-27T18:30:40.139Z,58.44
2023-02-27T18:31:40.141Z,58.44
2023-02-27T18:32:40.108Z,58.54
2023-02-27T18:33:40.096Z,58.88
2023-02-27T18:34:40.113Z,58.88
2023-02-27T18:35:40.111Z,58.98
2023-02-27T18:36:40.055Z,58.88
2023-02-27T18:37:40.047Z,59.08
2023-02-27T18:38:40.036Z,59.50
2023-02-27T18:39:40.026Z,59.50
2023-02-27T18:40:40.025Z,59.60
2023-02-27T18:41:39.993Z,59.60
2023-02-27T18:42:39.986Z,59.71
2023-02-27T18:43:39.968Z,59.92
2023-02-27T18:44:39.956Z,59.63
2023-02-27T18:45:39.952Z,59.94
2023-02-27T18:46:39.942Z,59.94
2023-02-27T18:47:39.919Z,59.94
2023-02-27T18:48:39.904Z,60.05
2023-02-27T18:49:39.890Z,60.05
2023-02-27T18:50:39.921Z,60.15
2023-02-27T18:51:39.862Z,60.26
2023-02-27T18:52:39.853Z,60.46
2023-02-27T18:53:39.837Z,60.46
2023-02-27T18:54:39.828Z,60.36
2023-02-27T18:55:39.816Z,60.67
2023-02-27T18:56:39.801Z,60.77
2023-02-27T18:57:39.787Z,60.98
2023-02-27T18:58:39.775Z,61.09
2023-02-27T18:59:39.763Z,60.98
2023-02-27T19:00:39.749Z,61.19
2023-02-27T19:01:39.735Z,61.12
2023-02-27T19:02:41.347Z,61.12
2023-02-27T19:03:39.764Z,61.43
2023-02-27T19:04:39.698Z,61.43
2023-02-27T19:05:39.683Z,61.32
2023-02-27T19:06:39.697Z,61.32
2023-02-27T19:07:39.661Z,61.43
2023-02-27T19:08:39.646Z,61.53
2023-02-27T19:09:39.632Z,61.43
2023-02-27T19:10:39.640Z,61.53
2023-02-27T19:11:39.625Z,61.53
2023-02-27T19:12:39.597Z,61.60
2023-02-27T19:13:39.579Z,61.60
2023-02-27T19:14:39.567Z,61.50
2023-02-27T19:15:39.555Z,61.71
2023-02-27T19:16:39.634Z,61.60
2023-02-27T19:17:39.529Z,61.60
2023-02-27T19:18:39.544Z,61.60
2023-02-27T19:19:39.503Z,61.50
2023-02-27T19:20:39.491Z,61.50
2023-02-27T19:21:39.482Z,61.60
2023-02-27T19:22:39.499Z,61.50
2023-02-27T19:23:39.451Z,61.60
2023-02-27T19:24:39.463Z,61.60
2023-02-27T19:25:39.429Z,61.60
2023-02-27T19:26:39.413Z,61.60
2023-02-27T19:27:39.401Z,61.50
2023-02-27T19:28:39.387Z,61.50
2023-02-27T19:29:39.374Z,61.60
2023-02-27T19:30:39.362Z,61.60
2023-02-27T19:31:39.406Z,61.50
2023-02-27T19:32:39.337Z,61.68
2023-02-27T19:33:39.321Z,61.58
2023-02-27T19:34:39.312Z,61.68
2023-02-27T19:35:39.309Z,61.79
2023-02-27T19:37:39.272Z,61.81
2023-02-27T19:38:39.288Z,61.81
2023-02-27T19:39:39.245Z,61.92
2023-02-27T19:40:39.245Z,61.99
2023-02-27T19:41:39.221Z,62.02
2023-02-27T19:42:39.214Z,62.02
2023-02-27T19:43:39.194Z,62.10
2023-02-27T19:44:39.181Z,61.99
2023-02-27T19:45:39.168Z,61.99
2023-02-27T19:46:41.159Z,61.99
2023-02-27T19:47:39.142Z,62.10
2023-02-27T19:48:39.129Z,62.10
2023-02-27T19:49:39.115Z,61.99
2023-02-27T19:50:39.104Z,62.10
2023-02-27T19:51:39.102Z,62.10
2023-02-27T19:52:39.086Z,62.20
2023-02-27T19:53:39.064Z,62.31
2023-02-27T19:54:39.075Z,62.31
2023-02-27T19:55:39.039Z,62.51
2023-02-27T19:56:39.028Z,62.51
2023-02-27T19:57:39.011Z,62.62
2023-02-27T19:58:39.003Z,62.62
2023-02-27T19:59:38.990Z,62.51
2023-02-27T20:00:39.020Z,62.62
2023-02-27T20:01:39.006Z,62.62
2023-02-27T20:02:38.950Z,62.72